createdAt,value
2023-03-23T00:02:20.207Z,2.3
2023-03-23T00:08:05.622Z,2.2
2023-03-23T00:13:52.641Z,2.2
2023-03-23T00:19:37.656Z,2.1
2023-03-23T00:25:22.734Z,2.4
2023-03-23T00:31:08.743Z,2.4
2023-03-23T00:36:54.384Z,2.2
2023-03-23T00:42:38.695Z,2.2
2023-03-23T00:48:24.210Z,2.2
2023-03-23T00:54:08.756Z,2.5
2023-03-23T01:00:05.432Z,2.4
2023-03-23T01:05:50.226Z,2.5
2023-03-23T01:11:34.827Z,2.2
2023-03-23T01:17:19.347Z,2.3
2023-03-23T01:23:03.971Z,2.2
2023-03-23T01:28:49.166Z,2.4
2023-03-23T01:34:33.944Z,2.5
2023-03-23T01:40:19.141Z,2.5
2023-03-23T01:46:03.715Z,2.2
2023-03-23T01:51:50.410Z,2.5
2023-03-23T01:57:37.099Z,2.3
2023-03-23T02:03:22.544Z,2.2
2023-03-23T02:09:12.706Z,2.3
2023-03-23T02:14:57.598Z,2.2
2023-03-23T02:20:51.121Z,2.1
2023-03-23T02:26:43.890Z,2.1
2023-03-23T02:32:36.098Z,1.8
2023-03-23T02:38:24.102Z,2.1
2023-03-23T02:44:10.490Z,1.8
2023-03-23T02:49:57.123Z,1.8
2023-03-23T02:55:44.945Z,2
2023-03-23T03:01:41.792Z,1.9
2023-03-23T03:07:34.143Z,2
2023-03-23T03:13:23.554Z,1.8
2023-03-23T03:19:10.810Z,1.7
2023-03-23T03:24:55.484Z,1.8
2023-03-23T03:30:41.030Z,1.7
2023-03-23T03:36:28.185Z,1.7
2023-03-23T03:42:13.039Z,1.7
2023-03-23T03:47:59.919Z,1.6
2023-03-23T03:53:44.929Z,1.5
2023-03-23T03:59:30.690Z,1.4
2023-03-23T04:05:16.815Z,1.6
2023-03-23T04:11:02.220Z,1.6
2023-03-23T04:16:55.770Z,1.5
2023-03-23T04:22:42.625Z,1.3
2023-03-23T04:28:28.606Z,1.3
2023-03-23T04:34:14.967Z,1.5
2023-03-23T04:40:01.123Z,1.4
2023-03-23T04:45:45.817Z,1.6
2023-03-23T04:51:31.487Z,1.4
2023-03-23T04:57:16.205Z,1.3
2023-03-23T05:03:01.042Z,1.3
2023-03-23T05:08:45.807Z,1.3
2023-03-23T05:14:37.743Z,1.3
2023-03-23T05:20:22.373Z,1.2
2023-03-23T05:26:07.040Z,1.2
2023-03-23T05:31:51.647Z,1.1
2023-03-23T05:37:36.122Z,1.2
2023-03-23T05:43:21.070Z,1.3
2023-03-23T05:49:05.634Z,1.2
2023-03-23T05:54:50.326Z,1.3
2023-03-23T06:00:35.082Z,1.2
2023-03-23T06:06:19.963Z,1.3
2023-03-23T06:12:04.776Z,1.4
2023-03-23T06:17:50.226Z,1.5
2023-03-23T06:23:34.880Z,1.3
2023-03-23T06:29:20.330Z,1.3
2023-03-23T06:35:05.831Z,1.2
2023-03-23T06:40:50.509Z,1.4
2023-03-23T06:46:35.358Z,1.4
2023-03-23T06:52:19.754Z,1.4
2023-03-23T06:58:05.482Z,1.3
2023-03-23T07:03:50.155Z,1.4
2023-03-23T07:09:44.371Z,1.2
2023-03-23T07:15:29.122Z,1.4
2023-03-23T07:21:13.714Z,1.4
2023-03-23T07:26:58.230Z,1.3
2023-03-23T07:32:42.811Z,1.5
2023-03-23T07:38:27.490Z,1.2
2023-03-23T07:44:12.225Z,1.5
2023-03-23T07:49:56.841Z,1.2
2023-03-23T07:55:42.468Z,1.2
2023-03-23T08:01:27.680Z,1.4
2023-03-23T08:07:21.074Z,1.5
2023-03-23T08:13:05.862Z,1.4
2023-03-23T08:18:51.600Z,1.2
2023-03-23T08:24:36.098Z,1.2
2023-03-23T08:30:23.677Z,1.2
2023-03-23T08:36:09.071Z,1.1
2023-03-23T08:41:54.708Z,1
2023-03-23T08:47:39.962Z,1.1
2023-03-23T08:53:24.486Z,1
2023-03-23T08:59:08.985Z,0.8
2023-03-23T09:04:54.582Z,1.1
2023-03-23T09:10:38.977Z,1.1
2023-03-23T09:16:23.608Z,1.3
2023-03-23T09:22:08.240Z,1.4
2023-03-23T09:27:53.228Z,1.1
2023-03-23T09:33:47.069Z,1.3
2023-03-23T09:39:31.712Z,1.2
2023-03-23T09:45:19.861Z,1.5
2023-03-23T09:51:07.905Z,1.5
2023-03-23T09:56:53.597Z,1.1
2023-03-23T10:02:41.875Z,1.1
2023-03-23T10:08:27.887Z,1.2
2023-03-23T10:14:20.466Z,1.3
2023-03-23T10:20:10.646Z,1.1
2023-03-23T10:25:56.222Z,1.3
2023-03-23T10:31:42.323Z,1.2
2023-03-23T10:37:29.162Z,1.1
2023-03-23T10:43:14.815Z,1
2023-03-23T10:49:01.387Z,1.1
2023-03-23T10:54:49.935Z,1.1
2023-03-23T11:00:35.030Z,1.3
2023-03-23T11:06:22.737Z,1.2
2023-03-23T11:12:07.574Z,1.2
2023-03-23T11:17:57.276Z,1.1
2023-03-23T11:23:43.537Z,1.2
2023-03-23T11:29:29.264Z,1.2
2023-03-23T11:35:19.357Z,1.1
2023-03-23T11:41:04.187Z,1.1
2023-03-23T11:46:51.851Z,1.1
2023-03-23T11:52:42.313Z,1.1
2023-03-23T11:58:27.047Z,1
2023-03-23T12:04:21.134Z,0.9
2023-03-23T12:10:11.163Z,1
2023-03-23T12:16:01.407Z,1.3
2023-03-23T12:21:49.633Z,1.1
2023-03-23T12:27:37.875Z,1.2
2023-03-23T12:33:29.446Z,1.2
2023-03-23T12:39:42.759Z,1.2
2023-03-23T12:45:33.889Z,1.2
2023-03-23T12:51:23.633Z,1.2
2023-03-23T12:57:12.098Z,1.2
2023-03-23T13:03:00.336Z,1.3
2023-03-23T13:08:48.361Z,1.3
2023-03-23T13:14:40.457Z,1.5
2023-03-23T13:20:36.079Z,1.3
2023-03-23T13:26:21.735Z,1.5
2023-03-23T13:32:14.645Z,1.5
2023-03-23T13:37:59.167Z,1.4
2023-03-23T13:43:45.542Z,1.3
2023-03-23T13:49:30.042Z,1.5
2023-03-23T13:55:21.628Z,1.3
2023-03-23T14:01:17.153Z,1.4
2023-03-23T14:07:06.678Z,1.3
2023-03-23T14:12:53.189Z,1.4
2023-03-23T14:18:39.361Z,1.4
2023-03-23T14:24:25.811Z,1.7
2023-03-23T14:30:11.666Z,1.4
2023-03-23T14:35:56.714Z,1.4
2023-03-23T14:41:41.749Z,1.4
2023-03-23T14:47:28.608Z,1.6
2023-03-23T14:53:19.208Z,1.6
2023-03-23T14:59:06.372Z,1.6
2023-03-23T15:04:53.488Z,1.5
2023-03-23T15:10:38.164Z,1.6
2023-03-23T15:16:23.558Z,1.6
2023-03-23T15:22:15.935Z,1.4
2023-03-23T15:28:06.252Z,1.6
2023-03-23T15:33:53.209Z,1.5
2023-03-23T15:39:42.642Z,1.5
2023-03-23T15:45:29.583Z,1.3
2023-03-23T15:51:14.769Z,1.6
2023-03-23T15:57:00.328Z,1.6
2023-03-23T16:02:45.458Z,1.6
2023-03-23T16:08:30.171Z,1.6
2023-03-23T16:14:14.852Z,1.6
2023-03-23T16:20:04.919Z,1.5
2023-03-23T16:25:49.497Z,1.6
2023-03-23T16:31:34.074Z,1.7
2023-03-23T16:37:18.560Z,1.5
2023-03-23T16:43:08.660Z,1.6
2023-03-23T16:48:53.824Z,1.4
2023-03-23T16:54:38.524Z,1.7
2023-03-23T17:00:23.660Z,2.1
2023-03-23T17:06:08.518Z,2.2
2023-03-23T17:11:52.947Z,2.4
2023-03-23T17:17:37.795Z,2.3
2023-03-23T17:23:22.579Z,2.5
2023-03-23T17:29:07.643Z,3.2
2023-03-23T17:34:51.970Z,7.6
2023-03-23T17:40:36.682Z,7.1
2023-03-23T17:46:21.544Z,5.6
2023-03-23T17:52:07.110Z,5.4
2023-03-23T17:57:51.538Z,4.7
2023-03-23T18:03:36.242Z,4.5
2023-03-23T18:09:22.475Z,4.7
2023-03-23T18:15:07.942Z,3.7
2023-03-23T18:20:55.637Z,3.4
2023-03-23T18:26:42.677Z,3.6
2023-03-23T18:32:28.338Z,3.5
2023-03-23T18:38:13.407Z,3
2023-03-23T18:43:59.745Z,3
2023-03-23T18:49:44.516Z,2.7
2023-03-23T18:55:29.165Z,2.8
2023-03-23T19:01:15.020Z,2.6
2023-03-23T19:06:59.657Z,2.4
2023-03-23T19:12:44.075Z,2.2
2023-03-23T19:18:30.652Z,2.4
2023-03-23T19:24:15.398Z,2.1
2023-03-23T19:29:59.973Z,2.4
2023-03-23T19:35:48.970Z,2.1
2023-03-23T19:41:34.685Z,1.9
2023-03-23T19:47:19.138Z,1.9
2023-03-23T19:53:04.570Z,2.2
2023-03-23T19:58:49.628Z,2
2023-03-23T20:04:34.331Z,2
2023-03-23T20:10:19.039Z,2
2023-03-23T20:16:04.506Z,2.1
2023-03-23T20:21:49.329Z,2.1
2023-03-23T20:27:36.032Z,1.9
2023-03-23T20:33:21.476Z,1.9
2023-03-23T20:39:06.774Z,1.9
2023-03-23T20:44:51.380Z,2.1
2023-03-23T20:50:35.953Z,1.7
2023-03-23T20:56:20.939Z,1.9
2023-03-23T21:02:05.425Z,1.8
2023-03-23T21:07:50.222Z,1.5
2023-03-23T21:13:35.031Z,1.8
2023-03-23T21:19:19.684Z,1.7
2023-03-23T21:25:06.043Z,1.9
2023-03-23T21:30:50.586Z,1.5
2023-03-23T21:36:36.428Z,1.7
2023-03-23T21:42:20.980Z,1.7
2023-03-23T21:48:05.755Z,1.7
2023-03-23T21:53:50.600Z,1.6
2023-03-23T21:59:35.398Z,1.5
2023-03-23T22:05:22.260Z,1.7
2023-03-23T22:11:08.294Z,1.5
2023-03-23T22:16:52.898Z,1.5
2023-03-23T22:22:37.456Z,1.5
2023-03-23T22:28:22.146Z,1.7
2023-03-23T22:34:06.793Z,1.6
2023-03-23T22:39:51.510Z,1.5
2023-03-23T22:45:36.429Z,1.5
2023-03-23T22:51:21.681Z,1.7
2023-03-23T22:57:06.576Z,1.6
2023-03-23T23:02:51.485Z,1.9
2023-03-23T23:08:36.401Z,1.8
2023-03-23T23:14:20.989Z,1.7
2023-03-23T23:20:05.894Z,1.9
2023-03-23T23:25:51.095Z,1.9
2023-03-23T23:31:35.987Z,1.8
2023-03-23T23:37:20.658Z,1.6
2023-03-23T23:43:05.977Z,2.1
2023-03-23T23:48:50.497Z,2.2
2023-03-23T23:54:35.064Z,2.2
